Time;durP1;ratioP1;P1;durP2;ratioP2;P2;SDS_P1;SDS_P2;PMS_P1;PMS_P2;Temp;Humidity;BMP_temperature;BMP_pressure;BME280_temperature;BME280_humidity;BME280_pressure;Samples;Min_cycle;Max_cycle;Signal;HPM_P1;HPM_P2
2023/08/15 00:00:29;;;;;;;;;10.50;6.75;;;;;22.46;71.16;100981.41;4998987;28;45420;-45
2023/08/15 00:02:54;;;;;;;;;5.00;5.00;;;;;22.45;70.69;100974.28;4999030;28;45405;-43
2023/08/15 00:05:20;;;;;;;;;4.00;4.00;;;;;22.46;71.01;100975.13;4998573;28;46271;-45
2023/08/15 00:07:45;;;;;;;;;3.50;3.50;;;;;22.40;71.11;100974.94;4998698;28;45397;-46
2023/08/15 00:10:10;;;;;;;;;6.25;5.25;;;;;22.38;71.82;100974.34;4998884;28;45370;-45
2023/08/15 00:12:36;;;;;;;;;4.00;4.00;;;;;22.35;71.05;100960.41;4998810;28;45417;-46
2023/08/15 00:15:02;;;;;;;;;6.00;6.00;;;;;22.44;71.05;100964.50;4998606;28;46387;-45
2023/08/15 00:17:27;;;;;;;;;6.75;5.00;;;;;22.45;71.86;100965.34;4998368;28;45400;-44
2023/08/15 00:19:52;;;;;;;;;7.50;5.00;;;;;22.46;71.04;100957.00;4998342;28;45382;-47
2023/08/15 00:22:18;;;;;;;;;5.00;5.00;;;;;22.49;71.12;100969.25;4998863;28;45525;-45
2023/08/15 00:24:43;;;;;;;;;3.75;3.50;;;;;22.38;71.33;100939.13;4999144;28;46256;-46
2023/08/15 00:27:09;;;;;;;;;6.75;4.00;;;;;22.47;71.54;100961.34;4999083;28;45441;-46
2023/08/15 00:29:34;;;;;;;;;5.50;3.00;;;;;22.45;70.78;100963.44;4998870;28;45314;-45
2023/08/15 00:31:59;;;;;;;;;10.00;4.75;;;;;22.40;71.20;100966.81;4999942;28;45425;-46
2023/08/15 00:34:25;;;;;;;;;8.00;5.00;;;;;22.37;72.03;100971.84;4997735;28;46371;-43
2023/08/15 00:36:50;;;;;;;;;3.00;3.00;;;;;22.36;72.25;100968.31;4997610;28;45326;-44
2023/08/15 00:39:15;;;;;;;;;5.00;4.00;;;;;22.42;71.73;100972.03;4998542;28;45808;-46
2023/08/15 00:41:41;;;;;;;;;6.25;6.00;;;;;22.45;71.94;100974.28;4998459;28;45379;-47
2023/08/15 00:44:06;;;;;;;;;4.50;2.25;;;;;22.49;71.84;100972.81;4997936;28;46265;-47
2023/08/15 00:46:32;;;;;;;;;6.50;6.50;;;;;22.50;72.00;100962.78;4998152;28;45266;-47
2023/08/15 00:48:58;;;;;;;;;7.20;5.60;;;;;22.50;72.13;100974.50;4998278;28;45446;-45
2023/08/15 00:51:24;;;;;;;;;6.75;5.00;;;;;22.49;72.14;100967.38;4998221;28;45377;-49
2023/08/15 00:53:51;;;;;;;;;5.00;5.00;;;;;22.46;72.23;100966.97;4997693;28;45476;-54
2023/08/15 00:56:17;;;;;;;;;4.00;4.00;;;;;22.50;72.05;100981.75;4997635;28;45482;-45
2023/08/15 00:58:43;;;;;;;;;5.60;4.40;;;;;22.51;71.82;100978.03;4997868;28;45464;-46
2023/08/15 01:01:14;;;;;;;;;4.75;4.75;;;;;22.51;71.96;100978.03;4997689;28;45575;-49
2023/08/15 01:03:41;;;;;;;;;4.80;4.80;;;;;22.51;72.24;100972.59;4997092;28;45494;-46
2023/08/15 01:06:06;;;;;;;;;8.00;6.00;;;;;22.53;72.17;100968.59;4997740;28;45452;-47
2023/08/15 01:08:31;;;;;;;;;4.75;4.50;;;;;22.50;72.11;100966.34;4997997;28;45329;-46
2023/08/15 01:10:57;;;;;;;;;5.00;5.00;;;;;22.53;72.67;100979.44;4997863;28;45571;-46
2023/08/15 01:13:35;;;;;;;;;6.25;4.50;;;;;22.55;71.82;100984.66;4997730;28;46108;-45
2023/08/15 01:16:07;;;;;;;;;4.60;4.20;;;;;22.56;72.40;100981.72;4997627;28;45376;-46
2023/08/15 01:18:41;;;;;;;;;5.80;4.80;;;;;22.53;72.02;100976.72;4997865;28;45371;-46
2023/08/15 01:21:07;;;;;;;;;5.00;4.00;;;;;22.50;72.24;100988.03;4997441;28;45464;-49
2023/08/15 01:23:53;;;;;;;;;4.00;4.00;;;;;22.48;72.47;100987.41;4997346;28;45936;-46
2023/08/15 01:26:18;;;;;;;;;4.40;4.00;;;;;22.44;73.42;100988.06;4996961;28;45338;-46
2023/08/15 01:28:44;;;;;;;;;4.00;4.00;;;;;22.30;73.68;100981.91;4997507;28;45361;-47
2023/08/15 01:31:15;;;;;;;;;6.00;4.00;;;;;22.37;73.24;100993.53;4997697;28;45597;-45
2023/08/15 01:34:05;;;;;;;;;7.00;5.80;;;;;22.35;73.62;100991.03;4997131;28;46933;-46
2023/08/15 01:36:36;;;;;;;;;6.00;6.00;;;;;22.36;74.13;100991.88;4997461;28;45361;-47
2023/08/15 01:39:05;;;;;;;;;7.40;6.20;;;;;22.34;74.64;100996.69;4997603;28;45436;-47
2023/08/15 01:41:38;;;;;;;;;5.00;5.00;;;;;22.32;74.83;101001.47;4997524;28;45387;-46
2023/08/15 01:44:06;;;;;;;;;6.60;5.80;;;;;22.33;74.89;101001.28;4997105;28;45460;-46
2023/08/15 01:46:32;;;;;;;;;10.20;5.40;;;;;22.30;74.55;101000.88;4996519;28;45337;-45
2023/08/15 01:48:59;;;;;;;;;6.50;6.50;;;;;22.31;74.80;101007.97;4997298;28;45473;-45
2023/08/15 01:51:24;;;;;;;;;7.60;6.00;;;;;22.28;74.63;100997.53;4997261;28;45508;-46
2023/08/15 01:53:50;;;;;;;;;5.00;5.00;;;;;22.36;74.90;101005.41;4997005;28;46212;-45
2023/08/15 01:56:15;;;;;;;;;6.00;5.75;;;;;22.39;74.38;101021.25;4997017;28;45377;-46
2023/08/15 01:58:40;;;;;;;;;7.00;7.00;;;;;22.40;74.58;101009.34;4997206;28;45381;-45
2023/08/15 02:01:06;;;;;;;;;7.00;6.75;;;;;22.43;74.52;101025.19;4997300;28;45387;-47
2023/08/15 02:03:31;;;;;;;;;7.50;6.75;;;;;22.42;73.81;101026.25;4997238;28;46321;-46
2023/08/15 02:05:56;;;;;;;;;6.25;4.75;;;;;22.37;74.18;101020.63;4996902;28;45352;-47
2023/08/15 02:08:22;;;;;;;;;7.00;5.00;;;;;22.41;73.93;101027.28;4996470;28;45397;-46
2023/08/15 02:10:48;;;;;;;;;8.20;6.60;;;;;22.42;74.59;101028.97;4997164;28;45434;-48
2023/08/15 02:13:14;;;;;;;;;6.00;6.00;;;;;22.42;74.33;101021.66;4996766;28;46483;-47
2023/08/15 02:15:39;;;;;;;;;10.50;4.00;;;;;22.39;74.23;101013.97;4995221;28;45439;-46
2023/08/15 02:18:05;;;;;;;;;6.75;5.75;;;;;22.41;73.82;101019.97;4996980;28;45427;-46
2023/08/15 02:20:30;;;;;;;;;7.75;6.00;;;;;22.40;73.45;101021.03;4997289;28;45350;-47
2023/08/15 02:22:56;;;;;;;;;7.00;5.25;;;;;22.38;72.32;101022.31;4996207;28;53173;-46
2023/08/15 02:25:22;;;;;;;;;4.00;3.75;;;;;22.37;71.13;101036.88;4996626;28;45191;-51
2023/08/15 02:27:48;;;;;;;;;6.40;3.00;;;;;22.36;69.50;101037.94;4996592;28;45179;-49
2023/08/15 02:30:13;;;;;;;;;3.25;3.00;;;;;22.32;68.22;101026.69;4995518;28;45280;-45
2023/08/15 02:32:39;;;;;;;;;6.50;5.00;;;;;22.28;68.12;101016.53;4996406;28;46658;-46
2023/08/15 02:35:04;;;;;;;;;6.25;3.00;;;;;22.25;67.23;101011.53;4996340;28;45408;-47
2023/08/15 02:37:30;;;;;;;;;5.50;5.50;;;;;22.24;66.95;101015.28;4996672;28;45458;-47
2023/08/15 02:39:55;;;;;;;;;2.00;2.00;;;;;22.32;66.09;101028.59;4996744;28;45371;-48
2023/08/15 02:42:20;;;;;;;;;4.00;2.75;;;;;22.29;65.88;101021.75;4996197;28;46678;-47
2023/08/15 02:44:46;;;;;;;;;4.25;3.75;;;;;22.28;65.39;101021.94;4996235;28;45463;-47
2023/08/15 02:47:11;;;;;;;;;4.00;3.50;;;;;22.27;65.33;101021.09;4996264;28;45385;-45
2023/08/15 02:49:38;;;;;;;;;4.00;4.00;;;;;22.22;65.21;101010.09;4996163;28;45390;-46
2023/08/15 02:52:04;;;;;;;;;4.80;4.00;;;;;22.21;64.90;101007.63;4996479;28;46268;-47
2023/08/15 02:54:29;;;;;;;;;4.50;3.75;;;;;22.23;64.78;101010.94;4996412;28;45358;-45
2023/08/15 02:56:55;;;;;;;;;6.25;4.25;;;;;22.27;64.67;101014.88;4996160;28;45390;-47
2023/08/15 02:59:20;;;;;;;;;5.00;3.00;;;;;22.25;64.65;101022.38;4996475;28;45454;-48
2023/08/15 03:01:46;;;;;;;;;4.00;4.00;;;;;22.24;64.91;101026.13;4996175;28;45305;-47
2023/08/15 03:04:12;;;;;;;;;5.60;3.00;;;;;22.24;64.45;101024.25;4996315;28;45483;-46
2023/08/15 03:06:38;;;;;;;;;5.75;3.25;;;;;22.20;64.20;101022.19;4996307;28;45305;-46
2023/08/15 03:09:03;;;;;;;;;3.50;2.25;;;;;22.20;64.56;101031.16;4996618;28;45406;-45
2023/08/15 03:11:29;;;;;;;;;4.75;3.25;;;;;22.17;64.00;101016.16;4995704;28;45421;-46
2023/08/15 03:13:55;;;;;;;;;4.00;3.00;;;;;22.12;64.36;101009.69;4995897;28;45432;-46
2023/08/15 03:16:21;;;;;;;;;7.25;3.00;;;;;22.09;64.12;101012.84;4996130;28;45351;-48
2023/08/15 03:18:46;;;;;;;;;1.75;1.00;;;;;22.12;64.20;101012.41;4996265;28;45590;-47
2023/08/15 03:21:12;;;;;;;;;6.75;3.50;;;;;22.10;64.31;101011.78;4995770;28;46428;-48
2023/08/15 03:23:37;;;;;;;;;2.75;2.75;;;;;22.07;64.40;101013.03;4995734;28;45434;-49
2023/08/15 03:26:04;;;;;;;;;5.25;3.75;;;;;22.06;64.78;101014.09;4996320;28;45295;-49
2023/08/15 03:28:30;;;;;;;;;5.20;3.80;;;;;22.06;64.43;101027.66;4996133;28;45389;-47
2023/08/15 03:30:56;;;;;;;;;3.60;3.00;;;;;22.04;64.61;101027.03;4995770;28;45356;-47
2023/08/15 03:33:23;;;;;;;;;9.50;4.50;;;;;22.06;64.53;101027.66;4995884;28;45373;-47
2023/08/15 03:35:52;;;;;;;;;6.60;5.00;;;;;22.04;64.23;101032.47;4995755;28;45393;-46
2023/08/15 03:38:21;;;;;;;;;3.60;3.60;;;;;22.06;64.60;101049.31;4996212;28;45413;-43
2023/08/15 03:40:51;;;;;;;;;6.40;3.00;;;;;22.03;64.41;101051.63;4995697;28;46353;-48
2023/08/15 03:43:16;;;;;;;;;4.80;3.00;;;;;21.96;64.30;101048.13;4995602;28;45411;-49
2023/08/15 03:45:42;;;;;;;;;4.75;4.25;;;;;21.98;64.28;101054.97;4995988;28;45338;-47
2023/08/15 03:48:08;;;;;;;;;4.75;3.00;;;;;21.96;64.48;101065.22;4996011;28;45457;-48
2023/08/15 03:50:35;;;;;;;;;5.20;5.00;;;;;21.91;64.57;101059.56;4995869;28;45415;-48
2023/08/15 03:53:00;;;;;;;;;6.40;3.00;;;;;21.81;64.99;101062.75;4995596;28;45444;-46
2023/08/15 03:55:28;;;;;;;;;5.25;4.75;;;;;21.82;65.03;101077.13;4995570;28;45270;-44
2023/08/15 03:57:53;;;;;;;;;4.00;2.00;;;;;21.76;65.65;101083.38;4995809;28;45268;-48
2023/08/15 04:00:18;;;;;;;;;5.00;3.00;;;;;21.69;65.31;101077.97;4995168;28;46092;-48
2023/08/15 04:02:44;;;;;;;;;3.00;3.00;;;;;21.70;65.37;101092.34;4995786;28;45372;-47
2023/08/15 04:05:11;;;;;;;;;7.60;4.60;;;;;21.66;65.13;101097.38;4995533;28;45416;-51
2023/08/15 04:07:36;;;;;;;;;12.25;7.75;;;;;21.62;65.36;101102.38;4995668;28;45376;-49
2023/08/15 04:10:02;;;;;;;;;8.75;8.00;;;;;21.63;65.32;101112.16;4997542;28;46124;-47
2023/08/15 04:12:28;;;;;;;;;8.50;6.75;;;;;21.59;65.61;101110.09;4998516;28;45267;-50
2023/08/15 04:14:53;;;;;;;;;3.00;3.00;;;;;21.60;65.53;101107.16;4998698;28;45557;-48
2023/08/15 04:17:18;;;;;;;;;5.00;4.00;;;;;21.52;65.40;101104.66;4998897;28;45404;-48
2023/08/15 04:19:44;;;;;;;;;5.50;4.25;;;;;21.54;65.42;101112.59;4998537;28;47472;-50
2023/08/15 04:22:09;;;;;;;;;4.00;3.25;;;;;21.53;66.42;101119.88;4998671;28;45346;-47
2023/08/15 04:24:34;;;;;;;;;7.00;5.25;;;;;21.53;66.06;101124.44;4998742;28;45434;-45
2023/08/15 04:27:00;;;;;;;;;4.25;3.75;;;;;21.45;66.17;101119.25;4998776;28;45427;-50
2023/08/15 04:29:26;;;;;;;;;5.50;3.00;;;;;21.46;66.51;101127.16;4998445;28;46045;-47
2023/08/15 04:31:51;;;;;;;;;3.75;3.75;;;;;21.38;66.16;101122.78;4998261;28;45489;-47
2023/08/15 04:34:16;;;;;;;;;3.75;3.75;;;;;21.38;66.23;101124.66;4998436;28;45433;-50
2023/08/15 04:36:44;;;;;;;;;5.75;5.25;;;;;21.35;66.83;101125.91;4998660;28;45147;-48
2023/08/15 04:39:10;;;;;;;;;5.00;3.60;;;;;21.29;66.94;101121.31;4998234;28;46106;-47
2023/08/15 04:41:35;;;;;;;;;3.75;3.75;;;;;21.25;67.05;101113.81;4998198;28;45369;-49
2023/08/15 04:44:00;;;;;;;;;3.25;3.25;;;;;21.25;67.30;101120.06;4998657;28;45214;-46
2023/08/15 04:46:26;;;;;;;;;5.75;4.25;;;;;21.24;66.77;101117.53;4998379;28;45326;-45
2023/08/15 04:48:51;;;;;;;;;5.50;3.00;;;;;21.17;66.97;101115.69;4998083;28;45801;-47
2023/08/15 04:51:17;;;;;;;;;4.50;4.00;;;;;21.15;66.97;101122.31;4997600;28;45376;-44
2023/08/15 04:53:42;;;;;;;;;6.00;5.00;;;;;21.15;67.06;101122.31;4998127;28;45211;-46
2023/08/15 04:56:07;;;;;;;;;4.75;3.00;;;;;21.12;66.95;101120.06;4998402;28;45324;-47
2023/08/15 04:58:33;;;;;;;;;9.00;5.50;;;;;21.15;66.52;101133.16;4998118;28;45336;-47
2023/08/15 05:00:58;;;;;;;;;3.25;3.00;;;;;21.11;66.37;101129.19;4997915;28;45420;-46
2023/08/15 05:03:23;;;;;;;;;6.50;4.50;;;;;21.12;67.13;101134.41;4998112;28;45449;-47
2023/08/15 05:05:49;;;;;;;;;4.75;4.00;;;;;21.12;66.93;101130.88;4997983;28;45381;-45
2023/08/15 05:08:14;;;;;;;;;3.00;3.00;;;;;21.14;66.89;101137.72;4997990;28;46041;-47
2023/08/15 05:10:39;;;;;;;;;6.75;5.00;;;;;21.16;66.95;101143.78;4997863;28;45307;-49
2023/08/15 05:13:05;;;;;;;;;3.00;3.00;;;;;21.18;66.61;101143.56;4997948;28;45373;-46
2023/08/15 05:15:30;;;;;;;;;5.25;3.25;;;;;21.20;66.42;101144.22;4997957;28;45308;-45
2023/08/15 05:17:56;;;;;;;;;4.25;2.25;;;;;21.21;66.50;101135.03;4997555;28;45373;-45
2023/08/15 05:20:21;;;;;;;;;4.25;3.50;;;;;21.23;66.59;101137.53;4995398;28;45352;-47
2023/08/15 05:22:48;;;;;;;;;3.00;3.00;;;;;21.26;66.13;101139.84;4997332;28;45818;-48
2023/08/15 05:25:13;;;;;;;;;5.00;5.00;;;;;21.26;66.30;101146.06;4997934;28;45515;-48
2023/08/15 05:27:39;;;;;;;;;4.00;3.50;;;;;21.31;66.60;101148.97;4997420;28;47028;-44
2023/08/15 05:30:05;;;;;;;;;3.50;3.50;;;;;21.33;66.10;101151.53;4997539;28;45385;-42
2023/08/15 05:32:30;;;;;;;;;3.00;3.00;;;;;21.36;65.91;101149.25;4997759;28;45295;-49
2023/08/15 05:34:55;;;;;;;;;8.50;5.00;;;;;21.35;66.02;101141.31;4997650;28;45290;-44
2023/08/15 05:37:21;;;;;;;;;6.00;6.00;;;;;21.39;65.93;101156.94;4997261;28;46582;-49
2023/08/15 05:39:46;;;;;;;;;7.75;4.00;;;;;21.44;65.82;101153.59;4997319;28;45480;-46
2023/08/15 05:42:17;;;;;;;;;6.00;3.25;;;;;21.48;66.02;101154.00;4996179;28;45420;-47
2023/08/15 05:44:44;;;;;;;;;4.25;3.50;;;;;21.53;65.72;101155.06;4997640;28;45453;-43
2023/08/15 05:47:09;;;;;;;;;4.40;4.40;;;;;21.58;66.00;101157.16;4997063;28;45561;-45
2023/08/15 05:49:34;;;;;;;;;4.00;4.00;;;;;21.61;65.78;101157.53;4997287;28;45462;-46
2023/08/15 05:52:01;;;;;;;;;4.00;4.00;;;;;21.65;65.52;101158.78;4997405;28;45480;-45
2023/08/15 05:54:27;;;;;;;;;4.50;4.00;;;;;21.63;65.23;101152.75;4997315;28;45374;-46
2023/08/15 05:56:52;;;;;;;;;4.60;3.80;;;;;21.68;65.31;101161.09;4997017;28;46188;-44
2023/08/15 05:59:17;;;;;;;;;5.50;4.50;;;;;21.75;65.50;101171.91;4995706;28;45419;-45
2023/08/15 06:01:44;;;;;;;;;2.50;2.25;;;;;21.78;65.31;101174.19;4996942;28;45341;-48
2023/08/15 06:04:09;;;;;;;;;4.00;4.00;;;;;21.80;65.00;101171.28;4997189;28;45803;-45
2023/08/15 06:06:35;;;;;;;;;3.75;3.00;;;;;21.71;64.78;101149.00;4997029;28;45633;-45
2023/08/15 06:09:00;;;;;;;;;7.25;3.50;;;;;21.93;65.01;101182.94;4995613;28;45319;-46
2023/08/15 06:11:25;;;;;;;;;7.00;5.00;;;;;21.93;64.99;101188.34;4997029;28;45413;-47
2023/08/15 06:13:50;;;;;;;;;4.75;4.00;;;;;21.95;64.74;101198.13;4996714;28;45380;-45
2023/08/15 06:16:16;;;;;;;;;5.75;4.50;;;;;21.95;64.78;101198.13;4996683;28;46228;-46
2023/08/15 06:18:41;;;;;;;;;5.50;3.75;;;;;21.92;64.48;101192.09;4996505;28;45277;-46
2023/08/15 06:21:06;;;;;;;;;3.25;2.75;;;;;21.93;64.71;101193.75;4996750;28;45484;-47
2023/08/15 06:23:32;;;;;;;;;7.00;5.00;;;;;22.00;64.74;101206.47;4996642;28;45320;-43
2023/08/15 06:25:57;;;;;;;;;3.75;3.25;;;;;21.96;64.78;101206.06;4996592;28;45348;-46
2023/08/15 06:28:23;;;;;;;;;6.00;4.25;;;;;22.01;64.55;101210.84;4996683;28;45358;-46
2023/08/15 06:30:49;;;;;;;;;4.00;4.00;;;;;22.06;64.75;101221.88;4996502;28;45527;-46
2023/08/15 06:33:14;;;;;;;;;6.50;4.00;;;;;22.08;64.54;101215.22;4996477;28;45394;-44
2023/08/15 06:35:40;;;;;;;;;2.75;2.00;;;;;22.15;64.18;101231.47;4996216;28;45450;-47
2023/08/15 06:38:05;;;;;;;;;3.75;3.75;;;;;22.16;64.31;101231.28;4996527;28;45433;-43
2023/08/15 06:40:31;;;;;;;;;5.00;3.25;;;;;22.22;64.01;101236.91;4996772;28;45322;-46
2023/08/15 06:42:57;;;;;;;;;4.00;4.00;;;;;22.23;64.50;101241.28;4996570;28;45294;-45
2023/08/15 06:45:23;;;;;;;;;10.00;6.00;;;;;22.04;64.47;101215.84;4996336;28;46019;-44
2023/08/15 06:47:49;;;;;;;;;4.60;4.00;;;;;22.31;64.40;101241.03;4996236;28;45439;-45
2023/08/15 06:50:15;;;;;;;;;5.00;3.60;;;;;22.41;64.16;101250.38;4996273;28;45361;-45
2023/08/15 06:52:40;;;;;;;;;4.00;3.00;;;;;22.50;63.95;101251.00;4996736;28;45567;-48
2023/08/15 06:55:06;;;;;;;;;6.75;3.00;;;;;22.58;63.55;101256.19;4995805;28;47191;-47
2023/08/15 06:57:32;;;;;;;;;7.20;2.80;;;;;22.67;63.37;101254.91;4996064;28;45369;-47
2023/08/15 06:59:57;;;;;;;;;6.25;3.00;;;;;22.77;63.36;101264.47;4996119;28;45341;-48
2023/08/15 07:02:23;;;;;;;;;5.00;5.00;;;;;23.05;62.48;101261.44;4996038;28;45356;-45
2023/08/15 07:04:48;;;;;;;;;4.00;4.00;;;;;23.32;62.11;101257.53;4995289;28;45349;-47
2023/08/15 07:07:14;;;;;;;;;5.25;2.50;;;;;23.81;60.84;101241.56;4996335;28;45310;-46
2023/08/15 07:09:40;;;;;;;;;6.50;3.25;;;;;24.58;59.20;101250.22;4996317;28;45464;-48
2023/08/15 07:12:05;;;;;;;;;3.50;3.00;;;;;25.52;56.89;101264.25;4995269;28;45974;-46
2023/08/15 07:14:32;;;;;;;;;4.25;4.00;;;;;26.03;55.09;101241.84;4995902;28;47304;-45
2023/08/15 07:16:57;;;;;;;;;3.60;3.60;;;;;26.38;54.42;101265.56;4995693;28;45380;-45
2023/08/15 07:19:23;;;;;;;;;3.75;3.25;;;;;26.63;52.93;101262.56;4996141;28;45526;-44
2023/08/15 07:21:48;;;;;;;;;2.50;2.00;;;;;27.01;51.96;101263.88;4995801;28;45313;-47
2023/08/15 07:24:15;;;;;;;;;5.00;4.00;;;;;27.24;51.29;101258.34;4995887;28;45332;-46
2023/08/15 07:26:40;;;;;;;;;4.60;3.00;;;;;27.53;51.05;101267.34;4995820;28;45318;-43
2023/08/15 07:29:06;;;;;;;;;3.00;3.00;;;;;27.98;50.12;101263.75;4996222;28;45317;-42
2023/08/15 07:31:31;;;;;;;;;6.00;3.00;;;;;28.01;49.41;101260.50;4995721;28;45271;-48
2023/08/15 07:33:57;;;;;;;;;4.75;4.25;;;;;28.13;49.94;101265.03;4995381;28;46276;-46
2023/08/15 07:36:23;;;;;;;;;3.75;2.25;;;;;28.19;49.24;101259.41;4995907;28;45326;-46
2023/08/15 07:38:48;;;;;;;;;5.00;2.00;;;;;28.46;49.25;101273.22;4995625;28;45341;-45
2023/08/15 07:41:13;;;;;;;;;1.50;1.50;;;;;28.71;48.66;101258.19;4996144;28;45473;-45
2023/08/15 07:43:39;;;;;;;;;2.25;2.00;;;;;29.14;47.11;101267.47;4995608;28;46538;-43
2023/08/15 07:46:04;;;;;;;;;4.75;3.25;;;;;29.64;45.59;101269.91;4999021;28;45207;-47
2023/08/15 07:48:29;;;;;;;;;4.00;3.50;;;;;30.20;44.82;101269.53;4999219;28;45216;-46
2023/08/15 07:50:55;;;;;;;;;7.00;4.00;;;;;30.65;43.67;101262.63;4999370;28;45295;-44
2023/08/15 07:53:22;;;;;;;;;5.00;2.80;;;;;31.20;43.45;101266.69;4998840;28;47499;-46
2023/08/15 07:55:48;;;;;;;;;2.20;1.60;;;;;31.79;41.90;101261.53;4998736;28;45419;-46
2023/08/15 07:58:13;;;;;;;;;2.50;2.50;;;;;32.43;41.17;101259.25;4998553;28;45687;-47
2023/08/15 08:00:39;;;;;;;;;3.50;2.25;;;;;33.48;38.65;101269.19;4999140;28;45430;-47
2023/08/15 08:03:05;;;;;;;;;2.00;1.75;;;;;35.07;36.26;101255.38;4998708;28;45592;-48
2023/08/15 08:05:31;;;;;;;;;3.00;3.00;;;;;36.97;33.56;101257.16;4998706;28;45407;-45
2023/08/15 08:07:56;;;;;;;;;3.00;3.00;;;;;38.46;31.24;101245.84;4998964;28;45485;-46
2023/08/15 08:10:22;;;;;;;;;3.25;2.00;;;;;39.64;29.04;101252.16;4998833;28;45247;-46
2023/08/15 08:12:47;;;;;;;;;3.50;2.00;;;;;40.58;27.76;101248.53;4997234;28;48324;-46
2023/08/15 08:15:13;;;;;;;;;2.00;2.00;;;;;41.37;26.50;101249.56;4998622;28;45557;-47
2023/08/15 08:17:38;;;;;;;;;2.00;2.00;;;;;42.22;25.67;101246.19;4998527;28;45338;-45
2023/08/15 08:20:12;;;;;;;;;2.00;1.75;;;;;42.96;24.66;101251.72;4997504;28;45281;-47
2023/08/15 08:22:38;;;;;;;;;1.80;1.40;;;;;43.68;23.79;101248.97;4998067;28;45523;-46
2023/08/15 08:25:16;;;;;;;;;4.60;3.00;;;;;44.24;23.54;101249.63;4998513;28;45426;-47
2023/08/15 08:27:44;;;;;;;;;6.60;2.00;;;;;44.91;22.79;101243.94;4998779;28;45423;-47
2023/08/15 08:30:10;;;;;;;;;4.80;2.20;;;;;45.59;23.48;101248.13;4998606;28;45444;-49
2023/08/15 08:32:37;;;;;;;;;5.00;2.80;;;;;46.15;20.87;101239.09;4998195;28;45646;-48
2023/08/15 08:35:02;;;;;;;;;1.80;1.80;;;;;46.77;20.10;101236.78;4998370;28;45333;-47
2023/08/15 08:37:28;;;;;;;;;4.00;2.75;;;;;47.24;20.07;101237.38;4998450;28;45281;-48
2023/08/15 08:39:53;;;;;;;;;4.25;3.50;;;;;47.50;20.16;101242.13;4998285;28;45540;-45
2023/08/15 08:42:19;;;;;;;;;2.75;1.50;;;;;47.84;19.54;101239.22;4998063;28;46346;-48
2023/08/15 08:44:46;;;;;;;;;4.60;3.00;;;;;48.39;20.16;101239.25;4998374;28;45281;-48
2023/08/15 08:47:12;;;;;;;;;5.00;2.80;;;;;48.82;19.17;101231.03;4998182;28;45425;-47
2023/08/15 08:49:38;;;;;;;;;2.80;1.60;;;;;49.12;18.93;101236.41;4998381;28;45456;-47
2023/08/15 08:52:04;;;;;;;;;3.60;2.00;;;;;49.54;19.40;101243.38;4998161;28;46289;-47
2023/08/15 08:54:30;;;;;;;;;1.40;1.40;;;;;49.63;17.30;101230.44;4997203;28;45400;-46
2023/08/15 08:56:58;;;;;;;;;0.75;0.00;;;;;50.14;18.40;101229.22;4998173;28;45421;-48
2023/08/15 08:59:26;;;;;;;;;0.80;0.80;;;;;50.28;19.80;101238.94;4998133;28;45226;-48
2023/08/15 09:01:52;;;;;;;;;3.00;2.00;;;;;49.85;17.23;101247.44;4997502;28;45372;-45
2023/08/15 09:04:20;;;;;;;;;2.20;1.00;;;;;50.38;16.88;101244.56;4998064;28;45385;-47
2023/08/15 09:06:46;;;;;;;;;2.20;2.20;;;;;50.80;17.33;101242.81;4997908;28;45282;-47
2023/08/15 09:09:11;;;;;;;;;1.20;1.20;;;;;50.29;16.39;101252.66;4998151;28;45360;-45
2023/08/15 09:11:37;;;;;;;;;1.50;1.50;;;;;50.76;16.54;101255.38;4997700;28;46618;-47
2023/08/15 09:14:04;;;;;;;;;2.25;1.25;;;;;51.29;17.23;101243.81;4997702;28;45360;-45
2023/08/15 09:16:33;;;;;;;;;2.40;1.60;;;;;47.88;18.21;101252.16;4997778;28;45335;-46
2023/08/15 09:19:02;;;;;;;;;2.20;1.80;;;;;47.94;18.27;101252.59;4997753;28;45372;-46
2023/08/15 09:21:28;;;;;;;;;2.40;1.80;;;;;46.83;19.06;101251.34;4997270;28;46277;-48
2023/08/15 09:23:56;;;;;;;;;2.40;2.20;;;;;44.96;20.77;101251.25;4997418;28;45249;-47
2023/08/15 09:26:23;;;;;;;;;3.80;1.80;;;;;44.17;21.49;101254.25;4997650;28;45464;-49
2023/08/15 09:28:49;;;;;;;;;2.40;2.40;;;;;46.26;19.79;101250.50;4997584;28;45468;-47
2023/08/15 09:31:15;;;;;;;;;7.00;2.80;;;;;47.38;18.74;101253.66;4997350;28;46540;-45
2023/08/15 09:33:41;;;;;;;;;2.50;2.00;;;;;48.29;17.35;101251.25;4997314;28;45238;-46
2023/08/15 09:36:08;;;;;;;;;3.40;3.00;;;;;47.80;18.36;101260.94;4997094;28;45299;-46
2023/08/15 09:38:38;;;;;;;;;1.20;1.20;;;;;47.22;18.04;101251.03;4997524;28;45313;-46
2023/08/15 09:41:04;;;;;;;;;1.60;1.60;;;;;46.94;18.25;101249.50;4996737;28;45474;-44
2023/08/15 09:43:30;;;;;;;;;3.40;2.00;;;;;47.14;18.01;101244.50;4997265;28;45410;-48
2023/08/15 09:45:59;;;;;;;;;3.20;3.20;;;;;46.28;19.56;101248.97;4997461;28;45376;-45
2023/08/15 09:48:29;;;;;;;;;4.80;2.60;;;;;43.68;21.90;101258.19;4997222;28;45530;-43
2023/08/15 09:50:56;;;;;;;;;2.40;0.80;;;;;43.71;21.57;101256.66;4997190;28;46385;-46
2023/08/15 09:53:25;;;;;;;;;3.00;2.60;;;;;44.21;21.12;101247.56;4995467;28;45297;-48
2023/08/15 09:55:51;;;;;;;;;1.60;1.60;;;;;43.94;21.61;101251.25;4997003;28;45244;-47
2023/08/15 09:58:16;;;;;;;;;1.20;1.20;;;;;45.34;20.14;101249.63;4997185;28;45384;-48
2023/08/15 10:00:43;;;;;;;;;2.75;2.00;;;;;47.04;18.98;101242.41;4996947;28;46000;-49
2023/08/15 10:03:19;;;;;;;;;3.00;3.00;;;;;47.25;19.18;101239.81;4997020;28;45397;-46
2023/08/15 10:05:48;;;;;;;;;0.00;0.00;;;;;46.26;20.18;101239.25;4997152;28;45391;-45
2023/08/15 10:08:15;;;;;;;;;1.40;1.40;;;;;44.25;21.29;101254.09;4996441;28;45238;-47
2023/08/15 10:10:41;;;;;;;;;2.00;2.00;;;;;41.87;23.65;101237.41;4996932;28;45282;-48
2023/08/15 10:13:09;;;;;;;;;3.80;2.40;;;;;40.05;25.42;101250.75;4996699;28;45401;-46
2023/08/15 10:15:36;;;;;;;;;2.00;2.00;;;;;38.64;26.77;101252.28;4996877;28;45496;-46
2023/08/15 10:18:02;;;;;;;;;3.00;3.00;;;;;37.82;27.54;101248.97;4997125;28;45286;-44
2023/08/15 10:20:35;;;;;;;;;2.80;1.00;;;;;36.87;28.79;101253.75;4996429;28;46219;-45
2023/08/15 10:23:00;;;;;;;;;2.80;1.60;;;;;36.04;30.07;101250.19;4996237;28;45447;-45
2023/08/15 10:25:38;;;;;;;;;4.50;2.75;;;;;35.34;31.32;101259.38;4996729;28;45379;-46
2023/08/15 10:28:09;;;;;;;;;2.20;1.40;;;;;34.71;32.42;101263.28;4996832;28;45528;-45
2023/08/15 10:30:41;;;;;;;;;1.40;1.20;;;;;34.62;31.99;101251.25;4996712;28;46362;-47
2023/08/15 10:33:18;;;;;;;;;3.00;3.00;;;;;34.04;32.48;101260.44;4994988;28;45874;-45
2023/08/15 10:35:55;;;;;;;;;1.40;1.20;;;;;34.31;32.59;101262.66;4996454;28;45529;-46
2023/08/15 10:38:27;;;;;;;;;1.80;1.80;;;;;33.59;33.27;101265.25;4996701;28;45415;-45
2023/08/15 10:41:06;;;;;;;;;2.60;2.60;;;;;33.03;34.77;101260.91;4996291;28;46332;-46
2023/08/15 10:43:33;;;;;;;;;2.00;2.00;;;;;32.59;34.98;101254.50;4996089;28;45210;-46
2023/08/15 10:46:05;;;;;;;;;2.60;2.00;;;;;32.08;35.84;101254.66;4996409;28;45329;-50
2023/08/15 10:48:50;;;;;;;;;1.60;1.20;;;;;32.03;36.05;101263.75;4996620;28;45397;-50
2023/08/15 10:51:24;;;;;;;;;5.00;2.00;;;;;31.96;36.44;101263.19;4994893;28;48301;-45
2023/08/15 10:53:56;;;;;;;;;2.20;2.20;;;;;31.64;36.37;101255.19;4995976;28;45409;-45
2023/08/15 10:56:28;;;;;;;;;3.00;3.00;;;;;31.25;37.64;101267.50;4996025;28;45358;-46
2023/08/15 10:58:55;;;;;;;;;3.40;2.60;;;;;31.28;37.74;101271.66;4996448;28;45366;-48
2023/08/15 11:01:22;;;;;;;;;4.60;2.20;;;;;34.02;33.43;101257.16;4995917;28;45442;-46
2023/08/15 11:03:50;;;;;;;;;1.20;1.20;;;;;36.96;29.90;101251.94;4996047;28;45479;-47
2023/08/15 11:06:16;;;;;;;;;1.80;1.20;;;;;40.18;26.15;101262.84;4995796;28;45480;-47
2023/08/15 11:08:43;;;;;;;;;3.50;2.75;;;;;40.90;25.82;101261.78;4996234;28;45484;-43
2023/08/15 11:11:09;;;;;;;;;4.00;4.00;;;;;39.37;26.57;101263.69;4995796;28;45695;-45
2023/08/15 11:13:40;;;;;;;;;1.60;1.00;;;;;38.04;28.40;101258.44;4995836;28;45358;-46
2023/08/15 11:16:06;;;;;;;;;2.20;2.20;;;;;36.87;29.50;101268.47;4996234;28;45360;-48
2023/08/15 11:18:32;;;;;;;;;0.80;0.80;;;;;35.85;30.95;101267.66;4996213;28;45512;-42
2023/08/15 11:20:59;;;;;;;;;2.25;2.25;;;;;34.98;31.59;101274.56;4999171;28;46535;-45